West Liberty, West Virginia
Current Conditions -  °F | °C
As of 4:53 AM on Saturday 22 Nov 2014 (Local Time) from KHLG Reporting Station
Clear Clear  
Wind Chill: 14°   Ceiling: Unl
Heat Index: 24°   Visibility: 10mi
Dew Point:   Wind: 9mph
Humidity: 51%   Direction: 160°SSE
Pressure: 30.35"   Gusts: NA
Location:  40.17°N, 80.59°W
Report Text: KHLG 220953Z AUTO 16008KT 10SM CLR M04/M13 A3035 RMK AO2 SLP295 T10441133
Loading
Personal Weather Stations






























Interactive Weather Map New forecast layout! Learn more

10-Day Weather Forecast

Advertisements
Track Severe Weather on mobile